sensor_id;sensor_type;location;lat;lon;timestamp;temperature;humidity
44461;DHT22;30162;53.642;10.640;2023-04-06T00:00:24;5.50;85.00
44461;DHT22;30162;53.642;10.640;2023-04-06T00:02:50;5.50;84.20
44461;DHT22;30162;53.642;10.640;2023-04-06T00:05:18;5.50;84.80
44461;DHT22;30162;53.642;10.640;2023-04-06T00:07:43;5.40;84.80
44461;DHT22;30162;53.642;10.640;2023-04-06T00:10:09;5.20;85.10
44461;DHT22;30162;53.642;10.640;2023-04-06T00:12:35;5.10;84.60
44461;DHT22;30162;53.642;10.640;2023-04-06T00:15:00;4.80;84.80
44461;DHT22;30162;53.642;10.640;2023-04-06T00:17:27;4.90;85.10
44461;DHT22;30162;53.642;10.640;2023-04-06T00:19:52;4.70;85.00
44461;DHT22;30162;53.642;10.640;2023-04-06T00:22:18;4.70;85.30
44461;DHT22;30162;53.642;10.640;2023-04-06T00:24:44;4.30;85.70
44461;DHT22;30162;53.642;10.640;2023-04-06T00:27:09;4.00;86.60
44461;DHT22;30162;53.642;10.640;2023-04-06T00:29:35;4.30;87.20
44461;DHT22;30162;53.642;10.640;2023-04-06T00:32:00;4.50;86.70
44461;DHT22;30162;53.642;10.640;2023-04-06T00:34:26;4.50;87.60
44461;DHT22;30162;53.642;10.640;2023-04-06T00:36:52;4.80;87.20
44461;DHT22;30162;53.642;10.640;2023-04-06T00:39:17;4.60;85.60
44461;DHT22;30162;53.642;10.640;2023-04-06T00:41:46;4.40;87.40
44461;DHT22;30162;53.642;10.640;2023-04-06T00:44:14;4.50;87.80
44461;DHT22;30162;53.642;10.640;2023-04-06T00:46:39;4.60;87.70
44461;DHT22;30162;53.642;10.640;2023-04-06T00:49:05;4.50;87.20
44461;DHT22;30162;53.642;10.640;2023-04-06T00:51:31;4.50;87.80
44461;DHT22;30162;53.642;10.640;2023-04-06T00:53:56;4.70;88.30
44461;DHT22;30162;53.642;10.640;2023-04-06T00:56:22;4.90;87.40
44461;DHT22;30162;53.642;10.640;2023-04-06T00:58:49;5.00;86.30
44461;DHT22;30162;53.642;10.640;2023-04-06T01:01:15;5.00;85.80
44461;DHT22;30162;53.642;10.640;2023-04-06T01:03:40;5.00;85.50
44461;DHT22;30162;53.642;10.640;2023-04-06T01:06:07;4.90;84.60
44461;DHT22;30162;53.642;10.640;2023-04-06T01:08:33;5.00;84.80
44461;DHT22;30162;53.642;10.640;2023-04-06T01:11:01;5.00;84.70
44461;DHT22;30162;53.642;10.640;2023-04-06T01:13:27;4.90;84.50
44461;DHT22;30162;53.642;10.640;2023-04-06T01:15:53;4.90;83.80
44461;DHT22;30162;53.642;10.640;2023-04-06T01:18:25;4.70;84.40
44461;DHT22;30162;53.642;10.640;2023-04-06T01:20:51;4.70;84.80
44461;DHT22;30162;53.642;10.640;2023-04-06T01:23:17;4.60;84.90
44461;DHT22;30162;53.642;10.640;2023-04-06T01:25:42;4.50;85.30
44461;DHT22;30162;53.642;10.640;2023-04-06T01:28:08;4.40;85.30
44461;DHT22;30162;53.642;10.640;2023-04-06T01:30:33;4.30;85.00
44461;DHT22;30162;53.642;10.640;2023-04-06T01:32:59;4.20;85.20
44461;DHT22;30162;53.642;10.640;2023-04-06T01:35:26;4.00;85.80
44461;DHT22;30162;53.642;10.640;2023-04-06T01:37:52;3.90;86.20
44461;DHT22;30162;53.642;10.640;2023-04-06T01:40:18;3.90;87.00
44461;DHT22;30162;53.642;10.640;2023-04-06T01:42:44;3.90;87.10
44461;DHT22;30162;53.642;10.640;2023-04-06T01:45:10;3.90;87.30
44461;DHT22;30162;53.642;10.640;2023-04-06T01:47:35;3.70;87.10
44461;DHT22;30162;53.642;10.640;2023-04-06T01:50:01;3.60;88.30
44461;DHT22;30162;53.642;10.640;2023-04-06T01:52:28;3.70;88.30
44461;DHT22;30162;53.642;10.640;2023-04-06T01:54:54;3.80;88.90
44461;DHT22;30162;53.642;10.640;2023-04-06T01:57:20;4.00;88.50
44461;DHT22;30162;53.642;10.640;2023-04-06T01:59:45;4.00;88.40
44461;DHT22;30162;53.642;10.640;2023-04-06T02:02:11;4.00;88.00
44461;DHT22;30162;53.642;10.640;2023-04-06T02:04:38;4.10;88.30
44461;DHT22;30162;53.642;10.640;2023-04-06T02:07:03;4.20;88.10
44461;DHT22;30162;53.642;10.640;2023-04-06T02:09:29;4.20;87.70
44461;DHT22;30162;53.642;10.640;2023-04-06T02:11:55;4.10;88.00
44461;DHT22;30162;53.642;10.640;2023-04-06T02:14:21;3.90;87.40
44461;DHT22;30162;53.642;10.640;2023-04-06T02:16:46;3.80;87.70
44461;DHT22;30162;53.642;10.640;2023-04-06T02:19:12;3.80;88.80
44461;DHT22;30162;53.642;10.640;2023-04-06T02:21:38;3.70;89.20
44461;DHT22;30162;53.642;10.640;2023-04-06T02:24:03;3.60;89.20
44461;DHT22;30162;53.642;10.640;2023-04-06T02:26:29;3.70;89.70
44461;DHT22;30162;53.642;10.640;2023-04-06T02:28:54;3.90;89.00
44461;DHT22;30162;53.642;10.640;2023-04-06T02:31:20;3.90;89.00
44461;DHT22;30162;53.642;10.640;2023-04-06T02:33:46;3.90;88.40
44461;DHT22;30162;53.642;10.640;2023-04-06T02:36:11;4.00;88.60
44461;DHT22;30162;53.642;10.640;2023-04-06T02:38:37;4.10;87.70
44461;DHT22;30162;53.642;10.640;2023-04-06T02:41:02;4.00;88.00
44461;DHT22;30162;53.642;10.640;2023-04-06T02:43:28;3.90;88.30
44461;DHT22;30162;53.642;10.640;2023-04-06T02:45:53;3.90;88.40
44461;DHT22;30162;53.642;10.640;2023-04-06T02:48:19;3.90;89.70
44461;DHT22;30162;53.642;10.640;2023-04-06T02:50:45;4.00;89.40
44461;DHT22;30162;53.642;10.640;2023-04-06T02:53:11;4.10;89.70
44461;DHT22;30162;53.642;10.640;2023-04-06T02:55:36;4.10;89.60
44461;DHT22;30162;53.642;10.640;2023-04-06T02:58:02;4.30;89.50
44461;DHT22;30162;53.642;10.640;2023-04-06T03:00:27;4.40;89.30
44461;DHT22;30162;53.642;10.640;2023-04-06T03:02:53;4.50;89.00
44461;DHT22;30162;53.642;10.640;2023-04-06T03:05:18;4.40;88.90
44461;DHT22;30162;53.642;10.640;2023-04-06T03:07:44;4.50;90.40
44461;DHT22;30162;53.642;10.640;2023-04-06T03:10:11;4.40;89.70
44461;DHT22;30162;53.642;10.640;2023-04-06T03:12:36;4.50;89.90
44461;DHT22;30162;53.642;10.640;2023-04-06T03:15:02;4.30;90.00
44461;DHT22;30162;53.642;10.640;2023-04-06T03:17:28;4.30;90.50
44461;DHT22;30162;53.642;10.640;2023-04-06T03:19:53;4.20;90.40
44461;DHT22;30162;53.642;10.640;2023-04-06T03:22:19;4.10;90.70
44461;DHT22;30162;53.642;10.640;2023-04-06T03:24:46;4.20;90.70
44461;DHT22;30162;53.642;10.640;2023-04-06T03:27:11;4.30;90.50
44461;DHT22;30162;53.642;10.640;2023-04-06T03:29:37;4.20;90.70
44461;DHT22;30162;53.642;10.640;2023-04-06T03:32:02;4.30;90.70
44461;DHT22;30162;53.642;10.640;2023-04-06T03:34:28;4.30;90.70
44461;DHT22;30162;53.642;10.640;2023-04-06T03:36:54;4.30;90.70
44461;DHT22;30162;53.642;10.640;2023-04-06T03:39:19;4.20;90.70
44461;DHT22;30162;53.642;10.640;2023-04-06T03:41:45;4.40;90.70
44461;DHT22;30162;53.642;10.640;2023-04-06T03:44:11;4.30;90.70
44461;DHT22;30162;53.642;10.640;2023-04-06T03:46:36;4.40;90.30
44461;DHT22;30162;53.642;10.640;2023-04-06T03:49:02;4.50;90.10
44461;DHT22;30162;53.642;10.640;2023-04-06T03:51:28;4.50;90.20
44461;DHT22;30162;53.642;10.640;2023-04-06T03:53:53;4.50;89.70
44461;DHT22;30162;53.642;10.640;2023-04-06T03:56:19;4.30;90.20
44461;DHT22;30162;53.642;10.640;2023-04-06T03:58:45;4.30;90.60
44461;DHT22;30162;53.642;10.640;2023-04-06T04:01:14;4.10;90.50
44461;DHT22;30162;53.642;10.640;2023-04-06T04:03:40;4.30;90.70
44461;DHT22;30162;53.642;10.640;2023-04-06T04:06:05;4.40;90.50
44461;DHT22;30162;53.642;10.640;2023-04-06T04:08:31;4.30;90.30
44461;DHT22;30162;53.642;10.640;2023-04-06T04:10:57;4.30;90.40
44461;DHT22;30162;53.642;10.640;2023-04-06T04:13:22;4.30;90.60
44461;DHT22;30162;53.642;10.640;2023-04-06T04:15:48;4.40;90.60
44461;DHT22;30162;53.642;10.640;2023-04-06T04:18:13;4.40;90.60
44461;DHT22;30162;53.642;10.640;2023-04-06T04:20:39;4.40;90.60
44461;DHT22;30162;53.642;10.640;2023-04-06T04:23:05;4.30;90.60
44461;DHT22;30162;53.642;10.640;2023-04-06T04:25:30;4.40;90.60
44461;DHT22;30162;53.642;10.640;2023-04-06T04:27:56;4.40;90.60
44461;DHT22;30162;53.642;10.640;2023-04-06T04:30:21;4.40;90.60
44461;DHT22;30162;53.642;10.640;2023-04-06T04:32:47;4.40;90.50
44461;DHT22;30162;53.642;10.640;2023-04-06T04:35:12;4.40;90.80
44461;DHT22;30162;53.642;10.640;2023-04-06T04:37:40;4.30;91.20
44461;DHT22;30162;53.642;10.640;2023-04-06T04:40:06;4.40;91.20
44461;DHT22;30162;53.642;10.640;2023-04-06T04:42:32;4.40;91.40
44461;DHT22;30162;53.642;10.640;2023-04-06T04:44:58;4.50;91.10
44461;DHT22;30162;53.642;10.640;2023-04-06T04:47:23;4.50;91.10
44461;DHT22;30162;53.642;10.640;2023-04-06T04:49:49;4.50;91.00
44461;DHT22;30162;53.642;10.640;2023-04-06T04:52:14;4.30;90.90
44461;DHT22;30162;53.642;10.640;2023-04-06T04:54:40;4.40;91.50
44461;DHT22;30162;53.642;10.640;2023-04-06T04:57:06;4.50;91.70
44461;DHT22;30162;53.642;10.640;2023-04-06T04:59:33;4.40;91.50
44461;DHT22;30162;53.642;10.640;2023-04-06T05:01:59;4.50;91.50
44461;DHT22;30162;53.642;10.640;2023-04-06T05:04:24;4.70;91.40
44461;DHT22;30162;53.642;10.640;2023-04-06T05:06:50;4.70;91.10
44461;DHT22;30162;53.642;10.640;2023-04-06T05:09:16;4.70;91.00
44461;DHT22;30162;53.642;10.640;2023-04-06T05:11:42;4.80;91.10
44461;DHT22;30162;53.642;10.640;2023-04-06T05:14:08;4.80;90.70
44461;DHT22;30162;53.642;10.640;2023-04-06T05:16:34;4.80;90.70
44461;DHT22;30162;53.642;10.640;2023-04-06T05:19:01;4.70;91.30
44461;DHT22;30162;53.642;10.640;2023-04-06T05:21:27;4.80;91.00
44461;DHT22;30162;53.642;10.640;2023-04-06T05:23:53;4.90;91.10
44461;DHT22;30162;53.642;10.640;2023-04-06T05:26:19;5.00;91.00
44461;DHT22;30162;53.642;10.640;2023-04-06T05:28:45;5.00;90.90
44461;DHT22;30162;53.642;10.640;2023-04-06T05:31:11;5.00;90.80
44461;DHT22;30162;53.642;10.640;2023-04-06T05:33:36;5.20;90.90
44461;DHT22;30162;53.642;10.640;2023-04-06T05:36:02;4.90;90.90
44461;DHT22;30162;53.642;10.640;2023-04-06T05:38:29;5.20;91.10
44461;DHT22;30162;53.642;10.640;2023-04-06T05:40:54;5.30;90.80
44461;DHT22;30162;53.642;10.640;2023-04-06T05:43:21;5.40;91.00
44461;DHT22;30162;53.642;10.640;2023-04-06T05:45:46;5.40;90.70
44461;DHT22;30162;53.642;10.640;2023-04-06T05:48:12;5.40;90.90
44461;DHT22;30162;53.642;10.640;2023-04-06T05:50:37;5.60;90.70
44461;DHT22;30162;53.642;10.640;2023-04-06T05:53:03;5.60;90.20
44461;DHT22;30162;53.642;10.640;2023-04-06T05:55:28;5.70;90.40
44461;DHT22;30162;53.642;10.640;2023-04-06T05:57:54;5.80;90.30
44461;DHT22;30162;53.642;10.640;2023-04-06T06:00:20;5.70;90.20
44461;DHT22;30162;53.642;10.640;2023-04-06T06:02:46;5.60;90.90
44461;DHT22;30162;53.642;10.640;2023-04-06T06:05:11;5.70;90.70
44461;DHT22;30162;53.642;10.640;2023-04-06T06:07:37;6.00;90.40
44461;DHT22;30162;53.642;10.640;2023-04-06T06:10:03;6.10;90.40
44461;DHT22;30162;53.642;10.640;2023-04-06T06:12:28;6.10;90.30
44461;DHT22;30162;53.642;10.640;2023-04-06T06:14:54;6.30;90.10
44461;DHT22;30162;53.642;10.640;2023-04-06T06:17:20;6.40;89.20
44461;DHT22;30162;53.642;10.640;2023-04-06T06:19:46;6.20;89.50
44461;DHT22;30162;53.642;10.640;2023-04-06T06:22:11;6.10;88.80
44461;DHT22;30162;53.642;10.640;2023-04-06T06:24:37;6.00;90.10
44461;DHT22;30162;53.642;10.640;2023-04-06T06:27:02;6.50;90.10
44461;DHT22;30162;53.642;10.640;2023-04-06T06:29:28;6.80;88.80
44461;DHT22;30162;53.642;10.640;2023-04-06T06:31:54;6.80;89.30
44461;DHT22;30162;53.642;10.640;2023-04-06T06:34:19;7.00;88.20
44461;DHT22;30162;53.642;10.640;2023-04-06T06:36:45;7.50;88.50
44461;DHT22;30162;53.642;10.640;2023-04-06T06:39:11;7.90;86.10
44461;DHT22;30162;53.642;10.640;2023-04-06T06:41:36;8.30;85.90
44461;DHT22;30162;53.642;10.640;2023-04-06T06:44:02;8.50;82.60
44461;DHT22;30162;53.642;10.640;2023-04-06T06:46:28;8.50;81.50
44461;DHT22;30162;53.642;10.640;2023-04-06T06:48:53;8.80;80.90
44461;DHT22;30162;53.642;10.640;2023-04-06T06:51:19;8.70;79.70
44461;DHT22;30162;53.642;10.640;2023-04-06T06:53:44;8.80;81.00
44461;DHT22;30162;53.642;10.640;2023-04-06T06:56:10;9.20;80.60
44461;DHT22;30162;53.642;10.640;2023-04-06T06:58:36;9.30;78.00
44461;DHT22;30162;53.642;10.640;2023-04-06T07:01:01;9.50;77.60
44461;DHT22;30162;53.642;10.640;2023-04-06T07:03:27;10.00;77.30
44461;DHT22;30162;53.642;10.640;2023-04-06T07:05:52;10.70;75.30
44461;DHT22;30162;53.642;10.640;2023-04-06T07:08:19;10.90;73.70
44461;DHT22;30162;53.642;10.640;2023-04-06T07:10:45;10.50;74.00
44461;DHT22;30162;53.642;10.640;2023-04-06T07:13:10;10.20;73.50
44461;DHT22;30162;53.642;10.640;2023-04-06T07:15:36;10.50;75.70
44461;DHT22;30162;53.642;10.640;2023-04-06T07:18:02;11.00;73.70
44461;DHT22;30162;53.642;10.640;2023-04-06T07:20:28;11.80;72.70
44461;DHT22;30162;53.642;10.640;2023-04-06T07:22:53;12.30;70.80
44461;DHT22;30162;53.642;10.640;2023-04-06T07:25:19;12.60;70.00
44461;DHT22;30162;53.642;10.640;2023-04-06T07:27:45;12.80;70.30
44461;DHT22;30162;53.642;10.640;2023-04-06T07:30:11;13.00;69.20
44461;DHT22;30162;53.642;10.640;2023-04-06T07:32:36;13.20;67.30
44461;DHT22;30162;53.642;10.640;2023-04-06T07:35:02;13.30;66.20
44461;DHT22;30162;53.642;10.640;2023-04-06T07:37:28;13.30;66.80
44461;DHT22;30162;53.642;10.640;2023-04-06T07:39:54;13.50;66.10
44461;DHT22;30162;53.642;10.640;2023-04-06T07:42:20;13.10;65.70
44461;DHT22;30162;53.642;10.640;2023-04-06T07:44:45;13.20;66.80
44461;DHT22;30162;53.642;10.640;2023-04-06T07:47:11;13.80;66.80
44461;DHT22;30162;53.642;10.640;2023-04-06T07:49:36;14.00;63.80
44461;DHT22;30162;53.642;10.640;2023-04-06T07:52:02;14.30;64.30
44461;DHT22;30162;53.642;10.640;2023-04-06T07:54:28;14.40;61.90
44461;DHT22;30162;53.642;10.640;2023-04-06T07:56:54;14.30;63.30
44461;DHT22;30162;53.642;10.640;2023-04-06T07:59:19;14.60;62.60
44461;DHT22;30162;53.642;10.640;2023-04-06T08:01:45;14.70;63.10
44461;DHT22;30162;53.642;10.640;2023-04-06T08:04:11;14.60;62.20
44461;DHT22;30162;53.642;10.640;2023-04-06T08:06:36;14.60;60.30
44461;DHT22;30162;53.642;10.640;2023-04-06T08:09:02;13.30;61.50
44461;DHT22;30162;53.642;10.640;2023-04-06T08:11:28;13.90;61.80
44461;DHT22;30162;53.642;10.640;2023-04-06T08:13:54;14.00;59.60
44461;DHT22;30162;53.642;10.640;2023-04-06T08:16:22;13.90;59.60
44461;DHT22;30162;53.642;10.640;2023-04-06T08:18:47;14.10;60.40
44461;DHT22;30162;53.642;10.640;2023-04-06T08:21:13;14.20;60.00
44461;DHT22;30162;53.642;10.640;2023-04-06T08:23:38;13.90;60.20
44461;DHT22;30162;53.642;10.640;2023-04-06T08:26:04;14.20;59.70
44461;DHT22;30162;53.642;10.640;2023-04-06T08:28:30;14.50;58.80
44461;DHT22;30162;53.642;10.640;2023-04-06T08:30:56;14.70;59.60
44461;DHT22;30162;53.642;10.640;2023-04-06T08:33:21;15.10;56.10
44461;DHT22;30162;53.642;10.640;2023-04-06T08:35:47;15.20;57.50
44461;DHT22;30162;53.642;10.640;2023-04-06T08:38:13;15.50;56.40
44461;DHT22;30162;53.642;10.640;2023-04-06T08:40:39;15.60;55.00
44461;DHT22;30162;53.642;10.640;2023-04-06T08:43:09;15.90;55.70
44461;DHT22;30162;53.642;10.640;2023-04-06T08:45:38;15.70;53.90
44461;DHT22;30162;53.642;10.640;2023-04-06T08:48:05;15.90;54.50
44461;DHT22;30162;53.642;10.640;2023-04-06T08:50:33;15.00;54.50
44461;DHT22;30162;53.642;10.640;2023-04-06T08:52:59;14.80;54.70
44461;DHT22;30162;53.642;10.640;2023-04-06T08:55:25;14.90;54.60
44461;DHT22;30162;53.642;10.640;2023-04-06T08:57:50;15.10;52.60
44461;DHT22;30162;53.642;10.640;2023-04-06T09:00:20;15.40;53.10
44461;DHT22;30162;53.642;10.640;2023-04-06T09:02:47;15.80;51.60
44461;DHT22;30162;53.642;10.640;2023-04-06T09:05:14;15.90;51.30
44461;DHT22;30162;53.642;10.640;2023-04-06T09:07:40;15.70;50.50
44461;DHT22;30162;53.642;10.640;2023-04-06T09:10:06;16.00;52.50
44461;DHT22;30162;53.642;10.640;2023-04-06T09:12:32;16.10;51.90
44461;DHT22;30162;53.642;10.640;2023-04-06T09:14:59;16.20;49.70
44461;DHT22;30162;53.642;10.640;2023-04-06T09:17:30;15.70;49.60
44461;DHT22;30162;53.642;10.640;2023-04-06T09:19:58;15.40;48.80
44461;DHT22;30162;53.642;10.640;2023-04-06T09:22:24;15.50;49.10
44461;DHT22;30162;53.642;10.640;2023-04-06T09:24:53;15.70;48.50
44461;DHT22;30162;53.642;10.640;2023-04-06T09:27:39;16.20;50.10
44461;DHT22;30162;53.642;10.640;2023-04-06T09:30:08;16.20;47.60
44461;DHT22;30162;53.642;10.640;2023-04-06T09:35:14;15.80;49.20
44461;DHT22;30162;53.642;10.640;2023-04-06T09:37:41;15.40;46.90
44461;DHT22;30162;53.642;10.640;2023-04-06T09:40:07;15.60;47.60
44461;DHT22;30162;53.642;10.640;2023-04-06T09:42:33;14.60;47.20
44461;DHT22;30162;53.642;10.640;2023-04-06T09:44:59;14.90;48.00
44461;DHT22;30162;53.642;10.640;2023-04-06T09:47:25;15.20;47.50
44461;DHT22;30162;53.642;10.640;2023-04-06T09:49:58;15.50;47.90
44461;DHT22;30162;53.642;10.640;2023-04-06T09:52:50;15.30;48.20
44461;DHT22;30162;53.642;10.640;2023-04-06T09:55:36;16.00;48.00
44461;DHT22;30162;53.642;10.640;2023-04-06T09:58:06;16.90;45.70
44461;DHT22;30162;53.642;10.640;2023-04-06T10:00:44;16.60;46.60
44461;DHT22;30162;53.642;10.640;2023-04-06T10:03:27;16.30;45.70
44461;DHT22;30162;53.642;10.640;2023-04-06T10:05:55;16.20;46.50
44461;DHT22;30162;53.642;10.640;2023-04-06T10:08:26;16.80;46.80
44461;DHT22;30162;53.642;10.640;2023-04-06T10:10:54;15.80;47.60
44461;DHT22;30162;53.642;10.640;2023-04-06T10:13:20;15.80;45.10
44461;DHT22;30162;53.642;10.640;2023-04-06T10:15:46;15.60;46.90
44461;DHT22;30162;53.642;10.640;2023-04-06T10:18:12;16.10;46.60
44461;DHT22;30162;53.642;10.640;2023-04-06T10:21:00;16.00;44.80
44461;DHT22;30162;53.642;10.640;2023-04-06T10:23:33;15.70;44.60
44461;DHT22;30162;53.642;10.640;2023-04-06T10:26:01;14.90;45.30
44461;DHT22;30162;53.642;10.640;2023-04-06T10:28:35;14.60;45.80
44461;DHT22;30162;53.642;10.640;2023-04-06T10:31:10;15.40;45.10
44461;DHT22;30162;53.642;10.640;2023-04-06T10:33:36;15.80;43.20
44461;DHT22;30162;53.642;10.640;2023-04-06T10:36:20;16.10;44.00
44461;DHT22;30162;53.642;10.640;2023-04-06T10:38:46;14.90;45.70
44461;DHT22;30162;53.642;10.640;2023-04-06T10:41:12;14.70;45.00
44461;DHT22;30162;53.642;10.640;2023-04-06T10:43:40;15.30;48.10
44461;DHT22;30162;53.642;10.640;2023-04-06T10:46:07;15.40;45.70
44461;DHT22;30162;53.642;10.640;2023-04-06T10:51:27;16.40;45.70
44461;DHT22;30162;53.642;10.640;2023-04-06T10:53:54;16.90;45.70
44461;DHT22;30162;53.642;10.640;2023-04-06T10:56:24;17.60;44.50
44461;DHT22;30162;53.642;10.640;2023-04-06T10:58:54;17.10;44.20
44461;DHT22;30162;53.642;10.640;2023-04-06T11:01:22;17.30;45.60
44461;DHT22;30162;53.642;10.640;2023-04-06T11:03:50;17.40;43.20
44461;DHT22;30162;53.642;10.640;2023-04-06T11:06:23;17.20;44.50
44461;DHT22;30162;53.642;10.640;2023-04-06T11:08:50;17.30;44.20
44461;DHT22;30162;53.642;10.640;2023-04-06T11:11:18;16.40;44.50
44461;DHT22;30162;53.642;10.640;2023-04-06T11:18:57;17.70;45.80
44461;DHT22;30162;53.642;10.640;2023-04-06T11:26:30;18.50;44.10
44461;DHT22;30162;53.642;10.640;2023-04-06T11:28:56;17.40;43.80
44461;DHT22;30162;53.642;10.640;2023-04-06T11:31:25;16.80;46.30
44461;DHT22;30162;53.642;10.640;2023-04-06T11:33:58;16.60;45.30
44461;DHT22;30162;53.642;10.640;2023-04-06T11:36:27;16.40;44.90
44461;DHT22;30162;53.642;10.640;2023-04-06T11:38:56;15.80;45.50
44461;DHT22;30162;53.642;10.640;2023-04-06T11:41:23;15.90;46.50
44461;DHT22;30162;53.642;10.640;2023-04-06T11:43:51;16.40;46.90
44461;DHT22;30162;53.642;10.640;2023-04-06T11:46:20;17.30;46.10
44461;DHT22;30162;53.642;10.640;2023-04-06T11:48:46;17.40;45.80
44461;DHT22;30162;53.642;10.640;2023-04-06T11:51:12;17.50;44.50
44461;DHT22;30162;53.642;10.640;2023-04-06T11:53:44;17.30;45.00
44461;DHT22;30162;53.642;10.640;2023-04-06T11:56:11;16.30;44.80
44461;DHT22;30162;53.642;10.640;2023-04-06T11:58:47;16.20;46.10
44461;DHT22;30162;53.642;10.640;2023-04-06T12:01:13;16.30;45.90
44461;DHT22;30162;53.642;10.640;2023-04-06T12:03:38;16.60;45.30
44461;DHT22;30162;53.642;10.640;2023-04-06T12:06:04;16.80;47.20
44461;DHT22;30162;53.642;10.640;2023-04-06T12:08:29;15.90;45.10
44461;DHT22;30162;53.642;10.640;2023-04-06T12:10:55;15.30;46.00
44461;DHT22;30162;53.642;10.640;2023-04-06T12:13:21;16.20;46.90
44461;DHT22;30162;53.642;10.640;2023-04-06T12:15:46;16.60;46.70
44461;DHT22;30162;53.642;10.640;2023-04-06T12:18:12;16.40;46.40
44461;DHT22;30162;53.642;10.640;2023-04-06T12:20:37;16.60;44.90
44461;DHT22;30162;53.642;10.640;2023-04-06T12:23:03;17.10;46.70
44461;DHT22;30162;53.642;10.640;2023-04-06T12:25:28;17.70;47.00
44461;DHT22;30162;53.642;10.640;2023-04-06T12:27:54;17.50;45.40
44461;DHT22;30162;53.642;10.640;2023-04-06T12:30:20;17.50;46.30
44461;DHT22;30162;53.642;10.640;2023-04-06T12:32:45;17.60;44.60
44461;DHT22;30162;53.642;10.640;2023-04-06T12:35:11;17.10;46.00
44461;DHT22;30162;53.642;10.640;2023-04-06T12:37:38;17.40;45.40
44461;DHT22;30162;53.642;10.640;2023-04-06T12:40:04;17.40;45.90
44461;DHT22;30162;53.642;10.640;2023-04-06T12:42:30;17.70;46.10
44461;DHT22;30162;53.642;10.640;2023-04-06T12:44:55;17.70;43.90
44461;DHT22;30162;53.642;10.640;2023-04-06T12:47:21;17.20;44.70
44461;DHT22;30162;53.642;10.640;2023-04-06T12:49:47;17.50;45.70
44461;DHT22;30162;53.642;10.640;2023-04-06T12:52:13;17.00;44.60
44461;DHT22;30162;53.642;10.640;2023-04-06T12:54:39;16.60;44.50
44461;DHT22;30162;53.642;10.640;2023-04-06T12:57:04;16.40;44.30
44461;DHT22;30162;53.642;10.640;2023-04-06T12:59:30;16.80;44.90
44461;DHT22;30162;53.642;10.640;2023-04-06T13:01:59;17.20;44.90
44461;DHT22;30162;53.642;10.640;2023-04-06T13:04:25;17.00;45.30
44461;DHT22;30162;53.642;10.640;2023-04-06T13:06:51;17.10;44.90
44461;DHT22;30162;53.642;10.640;2023-04-06T13:09:17;16.40;46.00
44461;DHT22;30162;53.642;10.640;2023-04-06T13:11:42;16.80;45.60
44461;DHT22;30162;53.642;10.640;2023-04-06T13:14:08;16.90;45.40
44461;DHT22;30162;53.642;10.640;2023-04-06T13:16:34;17.20;44.40
44461;DHT22;30162;53.642;10.640;2023-04-06T13:19:00;17.60;43.80
44461;DHT22;30162;53.642;10.640;2023-04-06T13:21:26;17.80;44.70
44461;DHT22;30162;53.642;10.640;2023-04-06T13:23:52;18.20;44.80
44461;DHT22;30162;53.642;10.640;2023-04-06T13:26:17;18.30;44.60
44461;DHT22;30162;53.642;10.640;2023-04-06T13:28:43;18.40;45.50
44461;DHT22;30162;53.642;10.640;2023-04-06T13:31:09;17.80;44.20
44461;DHT22;30162;53.642;10.640;2023-04-06T13:33:35;17.90;44.70
44461;DHT22;30162;53.642;10.640;2023-04-06T13:36:01;18.30;44.00
44461;DHT22;30162;53.642;10.640;2023-04-06T13:38:27;18.60;45.20
44461;DHT22;30162;53.642;10.640;2023-04-06T13:40:52;18.30;43.30
44461;DHT22;30162;53.642;10.640;2023-04-06T13:43:18;17.80;45.20
44461;DHT22;30162;53.642;10.640;2023-04-06T13:45:50;16.90;43.30
44461;DHT22;30162;53.642;10.640;2023-04-06T13:48:16;17.40;44.30
44461;DHT22;30162;53.642;10.640;2023-04-06T13:50:42;17.70;45.00
44461;DHT22;30162;53.642;10.640;2023-04-06T13:53:07;17.80;45.40
44461;DHT22;30162;53.642;10.640;2023-04-06T13:55:33;17.70;45.10
44461;DHT22;30162;53.642;10.640;2023-04-06T13:57:58;17.60;45.90
44461;DHT22;30162;53.642;10.640;2023-04-06T14:00:24;17.20;44.70
44461;DHT22;30162;53.642;10.640;2023-04-06T14:02:50;17.30;45.70
44461;DHT22;30162;53.642;10.640;2023-04-06T14:05:16;17.50;46.10
44461;DHT22;30162;53.642;10.640;2023-04-06T14:07:42;17.60;45.90
44461;DHT22;30162;53.642;10.640;2023-04-06T14:10:08;17.10;44.00
44461;DHT22;30162;53.642;10.640;2023-04-06T14:12:40;16.80;44.50
44461;DHT22;30162;53.642;10.640;2023-04-06T14:15:06;17.00;45.90
44461;DHT22;30162;53.642;10.640;2023-04-06T14:17:32;17.00;44.40
44461;DHT22;30162;53.642;10.640;2023-04-06T14:19:57;16.70;45.40
44461;DHT22;30162;53.642;10.640;2023-04-06T14:22:23;15.90;46.30
44461;DHT22;30162;53.642;10.640;2023-04-06T14:24:48;16.10;46.80
44461;DHT22;30162;53.642;10.640;2023-04-06T14:27:14;16.60;46.90
44461;DHT22;30162;53.642;10.640;2023-04-06T14:29:40;16.20;45.50
44461;DHT22;30162;53.642;10.640;2023-04-06T14:32:05;15.70;45.80
44461;DHT22;30162;53.642;10.640;2023-04-06T14:34:31;16.20;46.30
44461;DHT22;30162;53.642;10.640;2023-04-06T14:36:56;16.40;45.80
44461;DHT22;30162;53.642;10.640;2023-04-06T14:39:22;16.60;46.40
44461;DHT22;30162;53.642;10.640;2023-04-06T14:41:47;16.90;46.20
44461;DHT22;30162;53.642;10.640;2023-04-06T14:44:15;17.20;45.70
44461;DHT22;30162;53.642;10.640;2023-04-06T14:46:40;16.90;44.70
44461;DHT22;30162;53.642;10.640;2023-04-06T14:49:06;17.10;46.10
44461;DHT22;30162;53.642;10.640;2023-04-06T14:51:33;17.10;46.20
44461;DHT22;30162;53.642;10.640;2023-04-06T14:54:00;16.90;45.60
44461;DHT22;30162;53.642;10.640;2023-04-06T14:56:26;16.90;46.00
44461;DHT22;30162;53.642;10.640;2023-04-06T14:58:51;16.80;45.40
44461;DHT22;30162;53.642;10.640;2023-04-06T15:01:18;16.50;45.00
44461;DHT22;30162;53.642;10.640;2023-04-06T15:03:45;15.80;45.80
44461;DHT22;30162;53.642;10.640;2023-04-06T15:06:14;16.00;46.40
44461;DHT22;30162;53.642;10.640;2023-04-06T15:08:41;16.20;46.20
44461;DHT22;30162;53.642;10.640;2023-04-06T15:11:07;16.30;45.70
44461;DHT22;30162;53.642;10.640;2023-04-06T15:13:32;16.20;45.50
44461;DHT22;30162;53.642;10.640;2023-04-06T15:15:58;16.20;46.90
44461;DHT22;30162;53.642;10.640;2023-04-06T15:18:23;15.80;47.20
44461;DHT22;30162;53.642;10.640;2023-04-06T15:20:49;15.80;46.30
44461;DHT22;30162;53.642;10.640;2023-04-06T15:23:15;16.20;46.50
44461;DHT22;30162;53.642;10.640;2023-04-06T15:25:41;16.50;46.30
44461;DHT22;30162;53.642;10.640;2023-04-06T15:28:07;16.70;45.70
44461;DHT22;30162;53.642;10.640;2023-04-06T15:30:32;16.60;45.70
44461;DHT22;30162;53.642;10.640;2023-04-06T15:32:59;16.50;46.10